Time;durP1;ratioP1;P1;durP2;ratioP2;P2;SDS_P1;SDS_P2;PMS_P1;PMS_P2;Temp;Humidity;BMP_temperature;BMP_pressure;BME280_temperature;BME280_humidity;BME280_pressure;Samples;Min_cycle;Max_cycle;Signal;HPM_P1;HPM_P2
2023/05/03 00:00:40;;;;;;;0.00;0.00;;;;;;;8.39;84.53;101461.91;6191162;23;20023;-75
2023/05/03 00:03:06;;;;;;;0.05;0.05;;;;;;;8.31;84.03;101449.44;6209661;23;20392;-75
2023/05/03 00:05:32;;;;;;;0.00;0.00;;;;;;;8.25;84.24;101460.38;6190569;23;20008;-74
2023/05/03 00:07:58;;;;;;;0.00;0.00;;;;;;;8.26;84.38;101456.59;6213838;23;20083;-74
2023/05/03 00:10:24;;;;;;;0.00;0.00;;;;;;;8.22;84.48;101467.13;6186530;23;20031;-73
2023/05/03 00:12:49;;;;;;;0.00;0.00;;;;;;;8.17;84.80;101466.97;6216418;23;20004;-74
2023/05/03 00:15:16;;;;;;;0.00;0.00;;;;;;;8.07;84.04;101451.13;6187629;23;20437;-74
2023/05/03 00:17:41;;;;;;;0.00;0.00;;;;;;;8.01;84.22;101452.03;6242665;23;20004;-74
2023/05/03 00:20:08;;;;;;;0.00;0.00;;;;;;;8.01;84.74;101460.19;6240460;23;20011;-74
2023/05/03 00:22:34;;;;;;;0.00;0.00;;;;;;;7.97;84.49;101454.38;6242752;23;20055;-73
2023/05/03 00:25:00;;;;;;;0.00;0.00;;;;;;;7.95;84.23;101444.75;6190247;23;20493;-74
2023/05/03 00:27:25;;;;;;;0.00;0.00;;;;;;;7.88;84.46;101449.41;6240164;23;20004;-73
2023/05/03 00:29:51;;;;;;;0.00;0.00;;;;;;;7.84;84.24;101444.44;6190732;23;20004;-74
2023/05/03 00:32:18;;;;;;;0.00;0.00;;;;;;;7.77;84.56;101438.19;6213042;23;20380;-74
2023/05/03 00:34:44;;;;;;;0.00;0.00;;;;;;;7.73;84.32;101438.88;6215399;23;19996;-74
2023/05/03 00:37:10;;;;;;;0.00;0.00;;;;;;;7.72;84.39;101435.28;6239893;23;20015;-74
2023/05/03 00:39:35;;;;;;;0.00;0.00;;;;;;;7.71;84.29;101441.81;6190890;23;20450;-74
2023/05/03 00:42:02;;;;;;;0.00;0.00;;;;;;;7.69;84.32;101446.63;6190064;23;20059;-74
2023/05/03 00:44:28;;;;;;;0.00;0.00;;;;;;;7.66;84.27;101453.34;6188852;23;20004;-73
2023/05/03 00:46:55;;;;;;;0.00;0.00;;;;;;;7.60;84.28;101431.63;6243451;23;20011;-73
2023/05/03 00:49:23;;;;;;;0.00;0.00;;;;;;;7.62;83.82;101445.84;6188473;23;20070;-73
2023/05/03 00:51:53;;;;;;;0.08;0.08;;;;;;;7.59;84.01;101451.75;6243369;23;20327;-74
2023/05/03 00:54:20;;;;;;;0.00;0.00;;;;;;;7.54;83.61;101438.81;6214451;23;20828;-74
2023/05/03 00:56:45;;;;;;;0.00;0.00;;;;;;;7.47;84.59;101427.94;6242441;23;20015;-73
2023/05/03 00:59:11;;;;;;;0.00;0.00;;;;;;;7.50;84.03;101435.69;6166388;23;20008;-73
2023/05/03 01:01:37;;;;;;;0.00;0.00;;;;;;;7.41;84.34;101428.84;6213600;23;20039;-74
2023/05/03 01:04:04;;;;;;;0.00;0.00;;;;;;;7.39;84.35;101436.41;6165651;23;20089;-75
2023/05/03 01:06:56;;;;;;;0.00;0.00;;;;;;;7.39;84.45;101441.84;6213020;23;20019;-75
2023/05/03 01:09:54;;;;;;;0.00;0.00;;;;;;;7.37;83.71;101438.50;6215084;23;20031;-73
2023/05/03 01:13:10;;;;;;;0.00;0.00;;;;;;;7.35;84.12;101435.16;6180424;23;20004;-74
2023/05/03 01:15:52;;;;;;;0.00;0.00;;;;;;;7.29;84.11;101419.72;6180732;23;20485;-73
2023/05/03 01:18:23;;;;;;;0.00;0.00;;;;;;;7.29;84.44;101414.28;6214901;23;20000;-74
2023/05/03 01:20:50;;;;;;;0.00;0.00;;;;;;;7.27;84.02;101413.66;6216158;23;20003;-74
2023/05/03 01:23:52;;;;;;;0.00;0.00;;;;;;;7.26;84.20;101415.56;6190882;23;20066;-74
2023/05/03 01:26:22;;;;;;;0.00;0.00;;;;;;;7.24;83.96;101416.81;6246058;23;20011;-74
2023/05/03 01:28:47;;;;;;;0.00;0.00;;;;;;;7.16;84.35;101416.03;6243428;23;20137;-73
2023/05/03 01:31:20;;;;;;;0.10;0.10;;;;;;;7.07;83.93;101397.47;6188698;23;20015;-73
2023/05/03 01:34:16;;;;;;;0.00;0.00;;;;;;;7.11;83.96;101413.16;6240880;23;20434;-72
2023/05/03 01:36:43;;;;;;;0.00;0.00;;;;;;;7.05;84.47;101402.28;6196450;23;20004;-73
2023/05/03 01:39:36;;;;;;;0.00;0.00;;;;;;;7.04;84.14;101401.47;6214704;23;20511;-72
2023/05/03 01:42:03;;;;;;;0.00;0.00;;;;;;;7.03;84.58;101398.97;6244748;23;20122;-73
2023/05/03 01:44:30;;;;;;;0.00;0.00;;;;;;;6.95;84.54;101391.88;6216651;23;20004;-74
2023/05/03 01:46:56;;;;;;;0.00;0.00;;;;;;;6.95;84.46;101400.03;6216442;23;20098;-74
2023/05/03 01:49:21;;;;;;;0.00;0.00;;;;;;;6.88;84.03;101380.22;6215138;23;20004;-74
2023/05/03 01:51:47;;;;;;;0.10;0.10;;;;;;;6.96;83.52;101401.72;6217776;23;20035;-73
2023/05/03 01:54:12;;;;;;;0.00;0.00;;;;;;;6.87;84.10;101384.00;6187552;23;20012;-73
2023/05/03 01:56:38;;;;;;;0.00;0.00;;;;;;;6.82;83.75;101399.06;6166942;23;20422;-73
2023/05/03 01:59:03;;;;;;;0.00;0.00;;;;;;;6.78;83.77;101391.56;6216442;23;20075;-73
2023/05/03 02:01:29;;;;;;;0.00;0.00;;;;;;;6.74;83.46;101396.59;6186760;23;20466;-74
2023/05/03 02:03:54;;;;;;;0.00;0.00;;;;;;;6.74;83.80;101401.22;6189714;23;20019;-73
2023/05/03 02:06:20;;;;;;;0.00;0.00;;;;;;;6.72;84.50;101404.16;6244177;23;20008;-74
2023/05/03 02:08:45;;;;;;;0.00;0.00;;;;;;;6.71;83.50;101402.47;6210967;22;20012;-73
2023/05/03 02:11:11;;;;;;;0.00;0.00;;;;;;;6.67;83.60;101395.78;6244843;23;20004;-73
2023/05/03 02:13:37;;;;;;;0.00;0.00;;;;;;;6.66;83.18;101398.72;6187467;23;20023;-74
2023/05/03 02:16:03;;;;;;;0.00;0.00;;;;;;;6.60;84.14;101389.53;6215851;23;20008;-73
2023/05/03 02:18:30;;;;;;;0.00;0.00;;;;;;;6.64;84.35;101396.22;6189177;23;20015;-75
2023/05/03 02:20:56;;;;;;;0.00;0.00;;;;;;;6.69;84.58;101393.72;6191857;23;20020;-73
2023/05/03 02:23:22;;;;;;;0.00;0.00;;;;;;;6.71;83.45;101397.03;6214113;23;20015;-73
2023/05/03 02:25:48;;;;;;;0.00;0.00;;;;;;;6.69;83.51;101395.56;6241419;23;20008;-74
2023/05/03 02:28:14;;;;;;;0.00;0.00;;;;;;;6.65;83.80;101400.63;6243709;23;20039;-73
2023/05/03 02:30:39;;;;;;;0.00;0.00;;;;;;;6.60;83.39;101390.41;6212198;23;20016;-74
2023/05/03 02:33:05;;;;;;;0.00;0.00;;;;;;;6.60;83.22;101392.25;6191085;23;20027;-74
2023/05/03 02:35:30;;;;;;;0.00;0.00;;;;;;;6.56;83.62;101389.16;6164925;23;20625;-73
2023/05/03 02:37:56;;;;;;;0.00;0.00;;;;;;;6.57;83.37;101396.28;6242218;23;20004;-74
2023/05/03 02:40:21;;;;;;;0.00;0.00;;;;;;;6.56;83.15;101399.22;6191879;23;20016;-73
2023/05/03 02:42:47;;;;;;;0.00;0.00;;;;;;;6.58;83.31;101397.09;6190148;23;20454;-74
2023/05/03 02:45:12;;;;;;;0.00;0.00;;;;;;;6.53;83.86;101403.19;6217372;23;20023;-75
2023/05/03 02:47:38;;;;;;;0.00;0.00;;;;;;;6.49;83.16;101398.41;6163676;23;20012;-74
2023/05/03 02:50:05;;;;;;;0.00;0.00;;;;;;;6.46;82.78;101395.03;6239414;23;19996;-73
2023/05/03 02:52:30;;;;;;;0.00;0.00;;;;;;;6.42;83.17;101393.78;6217574;23;20018;-74
2023/05/03 02:54:56;;;;;;;0.00;0.00;;;;;;;6.41;83.52;101392.16;6189777;23;20099;-74
2023/05/03 02:57:21;;;;;;;0.00;0.00;;;;;;;6.39;82.90;101394.22;6215595;23;20689;-73
2023/05/03 02:59:46;;;;;;;0.00;0.00;;;;;;;6.37;83.66;101390.91;6187558;23;20008;-74
2023/05/03 03:02:12;;;;;;;0.00;0.00;;;;;;;6.34;83.89;101390.47;6186820;23;20446;-74
2023/05/03 03:04:37;;;;;;;0.00;0.00;;;;;;;6.27;83.67;101385.09;6243321;23;20008;-74
2023/05/03 03:07:03;;;;;;;0.00;0.00;;;;;;;6.32;83.30;101387.97;6212838;23;20462;-74
2023/05/03 03:09:28;;;;;;;0.00;0.00;;;;;;;6.29;83.09;101388.41;6164659;23;20012;-72
2023/05/03 03:11:53;;;;;;;0.10;0.10;;;;;;;6.30;83.00;101387.38;6188767;23;20039;-73
2023/05/03 03:14:19;;;;;;;0.00;0.00;;;;;;;6.32;82.74;101385.25;6170292;23;20008;-72
2023/05/03 03:16:45;;;;;;;0.05;0.05;;;;;;;6.32;82.71;101382.56;6226998;23;20326;-74
2023/05/03 03:19:10;;;;;;;0.00;0.00;;;;;;;6.26;83.48;101372.53;6235470;23;20335;-73
2023/05/03 03:21:36;;;;;;;0.00;0.00;;;;;;;6.27;83.21;101368.78;6188575;23;20008;-74
2023/05/03 03:24:02;;;;;;;0.08;0.08;;;;;;;6.27;82.68;101366.06;6212814;23;20008;-74
2023/05/03 03:26:28;;;;;;;0.00;0.00;;;;;;;6.32;82.93;101377.13;6212225;23;20082;-74
2023/05/03 03:28:53;;;;;;;0.00;0.00;;;;;;;6.33;83.14;101367.94;6214413;23;20008;-74
2023/05/03 03:31:21;;;;;;;0.00;0.00;;;;;;;6.34;82.71;101358.75;6237246;23;20474;-74
2023/05/03 03:33:47;;;;;;;0.00;0.00;;;;;;;6.27;82.43;101350.59;6214373;23;20031;-74
2023/05/03 03:36:12;;;;;;;0.00;0.00;;;;;;;6.27;82.51;101347.88;6182925;23;20011;-75
2023/05/03 03:38:39;;;;;;;0.00;0.00;;;;;;;6.28;82.32;101354.16;6187230;23;20005;-74
2023/05/03 03:41:05;;;;;;;0.00;0.00;;;;;;;6.33;82.61;101356.25;6160924;23;20081;-75
2023/05/03 03:43:31;;;;;;;0.00;0.00;;;;;;;6.25;82.79;101349.13;6187240;23;20431;-74
2023/05/03 03:45:56;;;;;;;0.00;0.00;;;;;;;6.14;82.83;101342.50;6241018;23;20412;-74
2023/05/03 03:48:21;;;;;;;0.00;0.00;;;;;;;6.08;82.47;101333.31;6185701;23;20016;-74
2023/05/03 03:50:47;;;;;;;0.00;0.00;;;;;;;6.08;82.31;101338.75;6189820;23;20019;-75
2023/05/03 03:53:15;;;;;;;0.00;0.00;;;;;;;6.00;83.08;101325.44;6209537;23;20331;-74
2023/05/03 03:55:40;;;;;;;0.00;0.00;;;;;;;6.01;82.80;101335.22;6161801;23;20035;-74
2023/05/03 03:58:06;;;;;;;0.00;0.00;;;;;;;6.03;82.80;101341.28;6162897;23;20335;-73
2023/05/03 04:00:32;;;;;;;0.05;0.05;;;;;;;5.99;82.79;101334.63;6210820;23;20584;-74
2023/05/03 04:02:58;;;;;;;0.00;0.00;;;;;;;5.96;83.37;101326.88;6214175;23;20031;-74
2023/05/03 04:05:23;;;;;;;0.00;0.00;;;;;;;5.90;83.03;101322.31;6185088;23;20015;-74
2023/05/03 04:07:49;;;;;;;0.00;0.00;;;;;;;5.91;83.42;101329.38;6190428;23;20304;-74
2023/05/03 04:10:14;;;;;;;0.10;0.10;;;;;;;5.90;82.97;101330.44;6209345;23;20051;-74
2023/05/03 04:12:40;;;;;;;0.00;0.00;;;;;;;5.78;83.30;101311.22;6213005;23;20418;-75
2023/05/03 04:15:06;;;;;;;0.00;0.00;;;;;;;5.83;82.85;101324.19;6163470;23;20016;-75
2023/05/03 04:17:33;;;;;;;0.00;0.00;;;;;;;5.74;82.99;101315.44;6208347;23;20343;-74
2023/05/03 04:20:03;;;;;;;0.00;0.00;;;;;;;5.78;83.06;101322.09;6189666;23;20016;-74
2023/05/03 04:22:30;;;;;;;0.10;0.10;;;;;;;5.74;82.52;101318.97;6236288;23;20008;-74
2023/05/03 04:24:55;;;;;;;0.00;0.00;;;;;;;5.72;83.54;101315.66;6188749;23;20344;-74
2023/05/03 04:27:20;;;;;;;0.00;0.00;;;;;;;5.79;82.98;101320.22;6208995;23;20042;-73
2023/05/03 04:29:47;;;;;;;0.00;0.00;;;;;;;5.77;82.95;101318.56;6189437;23;20012;-74
2023/05/03 04:32:13;;;;;;;0.00;0.00;;;;;;;5.72;82.78;101314.81;6185145;23;20390;-73
2023/05/03 04:34:39;;;;;;;0.00;0.00;;;;;;;5.67;82.79;101310.03;6186699;23;20042;-75
2023/05/03 04:37:05;;;;;;;0.00;0.00;;;;;;;5.69;83.43;101324.19;6189155;23;20431;-74
2023/05/03 04:39:32;;;;;;;0.00;0.00;;;;;;;5.55;83.43;101307.13;6235166;23;20007;-74
2023/05/03 04:41:58;;;;;;;0.00;0.00;;;;;;;5.58;83.48;101311.28;6164313;23;20480;-74
2023/05/03 04:44:24;;;;;;;0.00;0.00;;;;;;;5.56;82.93;101314.22;6159817;23;20014;-73
2023/05/03 04:46:50;;;;;;;0.00;0.00;;;;;;;5.49;83.87;101299.81;6163616;23;20083;-74
2023/05/03 04:49:16;;;;;;;0.00;0.00;;;;;;;5.49;83.75;101301.69;6185597;23;20043;-74
2023/05/03 04:51:42;;;;;;;0.00;0.00;;;;;;;5.48;83.68;101305.47;6164306;23;20057;-74
2023/05/03 04:54:07;;;;;;;0.00;0.00;;;;;;;5.57;83.84;101315.03;6213836;23;20008;-74
2023/05/03 04:56:34;;;;;;;0.00;0.00;;;;;;;5.60;83.70;101311.91;6209360;23;20374;-73
2023/05/03 04:59:00;;;;;;;0.00;0.00;;;;;;;5.60;83.02;101309.19;6213365;23;20008;-73
2023/05/03 05:01:26;;;;;;;0.00;0.00;;;;;;;5.64;83.31;101315.88;6212209;23;20419;-73
2023/05/03 05:03:52;;;;;;;0.00;0.00;;;;;;;5.62;83.22;101301.66;6185126;23;20018;-74
2023/05/03 05:06:18;;;;;;;0.00;0.00;;;;;;;5.72;82.70;101318.38;6188699;23;20091;-73
2023/05/03 05:08:44;;;;;;;0.00;0.00;;;;;;;5.73;82.88;101320.03;6184463;22;20576;-74
2023/05/03 05:11:11;;;;;;;0.00;0.00;;;;;;;5.79;82.83;101325.66;6216255;23;20008;-74
2023/05/03 05:13:38;;;;;;;0.00;0.00;;;;;;;5.84;83.25;101320.41;6238185;23;20693;-74
2023/05/03 05:16:04;;;;;;;0.00;0.00;;;;;;;5.84;82.62;101325.84;6215973;23;20019;-74
2023/05/03 05:18:30;;;;;;;0.00;0.00;;;;;;;5.92;82.34;101331.06;6216320;23;19996;-74
2023/05/03 05:20:55;;;;;;;0.00;0.00;;;;;;;5.96;82.61;101324.16;6185945;23;20057;-74
2023/05/03 05:23:20;;;;;;;0.00;0.00;;;;;;;5.98;82.47;101313.94;6215372;23;20008;-74
2023/05/03 05:25:46;;;;;;;0.00;0.00;;;;;;;6.14;81.60;101328.09;6161558;23;20489;-74
2023/05/03 05:28:11;;;;;;;0.00;0.00;;;;;;;6.18;81.59;101332.06;6215585;23;20047;-74
2023/05/03 05:30:37;;;;;;;0.00;0.00;;;;;;;6.27;82.41;101333.47;6187029;23;20062;-74
2023/05/03 05:33:02;;;;;;;0.00;0.00;;;;;;;6.28;81.68;101329.72;6216653;23;20061;-74
2023/05/03 05:35:28;;;;;;;0.00;0.00;;;;;;;6.35;81.58;101327.81;6190103;23;20035;-74
2023/05/03 05:37:56;;;;;;;0.00;0.00;;;;;;;6.42;81.51;101333.19;6214836;23;20087;-76
2023/05/03 05:40:21;;;;;;;0.00;0.00;;;;;;;6.57;81.76;101346.50;6215039;23;20090;-73
2023/05/03 05:42:47;;;;;;;0.00;0.00;;;;;;;6.62;80.78;101339.38;6211718;23;20130;-74
2023/05/03 05:45:13;;;;;;;0.00;0.00;;;;;;;6.70;80.32;101332.88;6242707;23;20031;-75
2023/05/03 05:47:38;;;;;;;0.05;0.05;;;;;;;6.77;80.42;101339.06;6209529;23;20011;-78
2023/05/03 05:50:05;;;;;;;0.00;0.00;;;;;;;6.87;80.22;101340.50;6190422;23;20008;-74
2023/05/03 05:52:31;;;;;;;0.00;0.00;;;;;;;6.97;79.77;101347.09;6215217;23;20031;-75
2023/05/03 05:54:56;;;;;;;0.00;0.00;;;;;;;6.99;79.97;101333.28;6187733;23;20316;-74
2023/05/03 05:57:22;;;;;;;0.00;0.00;;;;;;;7.07;79.88;101330.31;6190228;23;20427;-75
2023/05/03 05:59:47;;;;;;;0.00;0.00;;;;;;;7.19;79.88;101337.75;6213787;23;20004;-77
2023/05/03 06:02:17;;;;;;;0.00;0.00;;;;;;;7.31;79.25;101346.88;6158747;23;20423;-77
2023/05/03 06:04:45;;;;;;;0.00;0.00;;;;;;;7.40;78.93;101350.97;6215413;23;20004;-77
2023/05/03 06:07:11;;;;;;;0.00;0.00;;;;;;;7.45;78.80;101342.97;6237234;23;20007;-75
2023/05/03 06:09:36;;;;;;;0.00;0.00;;;;;;;7.61;78.63;101351.66;6215081;23;20020;-74
2023/05/03 06:12:01;;;;;;;0.00;0.00;;;;;;;7.67;78.31;101339.84;6211899;23;20016;-74
2023/05/03 06:14:27;;;;;;;0.00;0.00;;;;;;;7.81;78.25;101346.84;6167062;23;20011;-74
2023/05/03 06:16:52;;;;;;;0.00;0.00;;;;;;;7.99;78.18;101350.66;6164830;23;20015;-74
2023/05/03 06:19:18;;;;;;;0.00;0.00;;;;;;;8.07;77.15;101355.78;6189410;23;20430;-74
2023/05/03 06:21:43;;;;;;;0.00;0.00;;;;;;;8.10;77.23;101360.75;6191443;23;20969;-77
2023/05/03 06:24:13;;;;;;;0.00;0.00;;;;;;;8.14;76.29;101361.97;6159351;23;20008;-77
2023/05/03 06:26:39;;;;;;;0.00;0.00;;;;;;;8.19;76.61;101359.41;6165449;23;20027;-76
2023/05/03 06:29:04;;;;;;;0.00;0.00;;;;;;;8.14;76.33;101351.09;6236683;23;20008;-77
2023/05/03 06:31:29;;;;;;;0.00;0.00;;;;;;;8.04;76.09;101337.16;6190305;23;20063;-77
2023/05/03 06:33:55;;;;;;;0.00;0.00;;;;;;;8.12;75.69;101342.31;6209545;23;20023;-76
2023/05/03 06:36:21;;;;;;;0.00;0.00;;;;;;;8.10;75.80;101333.53;6189637;23;20011;-77
2023/05/03 06:38:46;;;;;;;0.00;0.00;;;;;;;8.35;75.88;101362.56;6241140;23;20000;-78
2023/05/03 06:41:14;;;;;;;0.00;0.00;;;;;;;8.47;75.78;101365.41;6160517;23;20090;-78
2023/05/03 06:43:40;;;;;;;0.00;0.00;;;;;;;8.44;75.70;101344.03;6189770;23;20510;-78
2023/05/03 06:46:05;;;;;;;0.00;0.00;;;;;;;8.62;75.24;101346.75;6209393;23;20140;-78
2023/05/03 06:48:31;;;;;;;0.00;0.00;;;;;;;8.76;75.93;101347.41;6192030;23;20066;-80
2023/05/03 06:50:57;;;;;;;0.00;0.00;;;;;;;8.95;75.08;101337.28;6186361;23;20020;-77
2023/05/03 06:53:29;;;;;;;0.00;0.00;;;;;;;9.23;75.17;101347.53;6190666;23;20016;-78
2023/05/03 06:55:56;;;;;;;0.00;0.00;;;;;;;9.41;74.72;101343.06;6215510;23;20008;-77
2023/05/03 06:58:26;;;;;;;0.05;0.05;;;;;;;9.66;73.52;101350.19;6186301;23;20004;-79
2023/05/03 07:00:52;;;;;;;0.00;0.00;;;;;;;9.88;72.68;101359.44;6216848;23;20036;-78
2023/05/03 07:03:22;;;;;;;0.00;0.00;;;;;;;10.07;71.57;101356.59;6214586;23;20004;-77
2023/05/03 07:05:50;;;;;;;0.00;0.00;;;;;;;10.12;71.44;101346.59;6215704;23;20010;-77
2023/05/03 07:08:23;;;;;;;0.00;0.00;;;;;;;10.08;70.90;101309.06;6191962;23;20004;-79
2023/05/03 07:10:49;;;;;;;0.00;0.00;;;;;;;10.39;69.92;101348.00;6241076;22;20024;-79
2023/05/03 07:13:14;;;;;;;0.00;0.00;;;;;;;10.24;69.14;101316.50;6164674;23;20069;-83
2023/05/03 07:15:40;;;;;;;0.00;0.00;;;;;;;10.36;68.83;101321.97;6187068;23;20399;-79
2023/05/03 07:18:06;;;;;;;0.00;0.00;;;;;;;10.37;68.46;101318.16;6217894;23;20008;-79
2023/05/03 07:20:31;;;;;;;0.00;0.00;;;;;;;10.62;68.19;101358.84;6186767;23;20008;-78
2023/05/03 07:22:57;;;;;;;0.00;0.00;;;;;;;10.54;68.04;101342.84;6189140;23;20011;-79
2023/05/03 07:25:22;;;;;;;0.10;0.10;;;;;;;10.67;67.82;101351.81;6212768;23;20016;-80
2023/05/03 07:27:48;;;;;;;0.00;0.00;;;;;;;10.78;68.13;101345.47;6211895;23;20000;-79
2023/05/03 07:30:13;;;;;;;0.00;0.00;;;;;;;10.82;67.11;101314.63;6187991;23;20008;-79
2023/05/03 07:32:39;;;;;;;0.00;0.00;;;;;;;11.10;66.83;101331.28;6209768;23;20000;-78
2023/05/03 07:35:07;;;;;;;0.00;0.00;;;;;;;11.32;65.98;101320.41;6186251;23;20018;-79
2023/05/03 07:37:32;;;;;;;0.00;0.00;;;;;;;11.57;65.51;101336.41;6210976;23;20109;-79
2023/05/03 07:40:08;;;;;;;;;;;;;;;;;;;;;
2023/05/03 07:42:35;;;;;;;0.00;0.00;;;;;;;12.22;64.02;101336.78;6234933;23;20083;-78
2023/05/03 07:45:23;;;;;;;0.00;0.00;;;;;;;12.65;62.80;101335.09;6213779;23;20432;-79
2023/05/03 07:48:09;;;;;;;0.00;0.00;;;;;;;13.08;61.32;101344.34;6201346;23;20008;-78
2023/05/03 07:58:52;;;;;;;0.00;0.00;;;;;;;13.08;59.53;101327.00;5917683;23;21032;-79
2023/05/03 08:01:48;;;;;;;;;;;;;;;;;;;;;
2023/05/03 08:04:16;;;;;;;0.00;0.00;;;;;;;13.70;58.55;101336.59;6223782;23;20078;-76
2023/05/03 08:10:14;;;;;;;0.00;0.00;;;;;;;14.68;56.80;101320.56;6120190;23;20083;-78
2023/05/03 08:12:39;;;;;;;0.00;0.00;;;;;;;15.08;55.65;101335.47;6238248;23;20012;-77
2023/05/03 08:15:06;;;;;;;0.00;0.00;;;;;;;15.33;54.86;101337.44;6214620;23;20086;-77
2023/05/03 08:17:44;;;;;;;0.00;0.00;;;;;;;15.28;53.82;101328.34;6212417;23;20544;-77
2023/05/03 08:20:11;;;;;;;0.00;0.00;;;;;;;15.27;53.63;101337.69;6213591;23;20004;-75
2023/05/03 08:22:55;;;;;;;0.00;0.00;;;;;;;15.27;53.99;101322.00;6241759;23;20004;-77
2023/05/03 08:25:31;;;;;;;0.00;0.00;;;;;;;15.35;53.78;101318.69;6213594;23;20004;-77
2023/05/03 08:27:56;;;;;;;0.00;0.00;;;;;;;15.23;53.66;101298.03;6208596;23;20300;-77
2023/05/03 08:30:22;;;;;;;0.00;0.00;;;;;;;15.19;54.04;101309.59;6193357;23;20009;-78
2023/05/03 08:32:47;;;;;;;0.00;0.00;;;;;;;14.94;53.23;101295.84;6169885;23;20008;-77
2023/05/03 08:35:14;;;;;;;0.00;0.00;;;;;;;14.81;53.17;101299.94;6189847;23;20008;-77
2023/05/03 08:37:43;;;;;;;0.00;0.00;;;;;;;14.92;53.31;101312.63;6216815;23;20004;-77
2023/05/03 08:40:10;;;;;;;0.00;0.00;;;;;;;14.87;52.84;101320.06;6210184;23;20000;-77
2023/05/03 08:42:41;;;;;;;0.00;0.00;;;;;;;14.72;52.85;101304.31;6214430;23;20004;-78
2023/05/03 08:45:09;;;;;;;0.00;0.00;;;;;;;14.91;53.80;101307.38;6218108;23;20011;-80
2023/05/03 08:47:46;;;;;;;0.00;0.00;;;;;;;14.98;52.96;101307.94;6216451;23;20000;-80
2023/05/03 08:50:40;;;;;;;0.00;0.00;;;;;;;14.88;52.20;101280.38;6210193;23;20296;-81
2023/05/03 08:53:15;;;;;;;0.00;0.00;;;;;;;15.22;52.73;101301.91;6216751;23;20034;-81
2023/05/03 08:55:50;;;;;;;0.00;0.00;;;;;;;15.47;52.41;101299.09;6211862;23;20445;-78
2023/05/03 08:58:16;;;;;;;0.00;0.00;;;;;;;15.64;51.68;101298.81;6213258;23;20008;-78
2023/05/03 09:00:43;;;;;;;0.00;0.00;;;;;;;15.89;51.16;101310.91;6190751;23;20474;-78
2023/05/03 09:03:09;;;;;;;0.00;0.00;;;;;;;16.06;49.66;101316.09;6164193;23;20594;-78
2023/05/03 09:05:37;;;;;;;0.00;0.00;;;;;;;16.02;49.41;101310.31;6235652;23;20053;-77
2023/05/03 09:08:06;;;;;;;0.00;0.00;;;;;;;16.09;49.38;101303.66;6212968;23;20443;-77
2023/05/03 09:10:50;;;;;;;0.00;0.00;;;;;;;16.33;49.18;101299.16;6207300;23;20066;-79
2023/05/03 09:13:37;;;;;;;0.00;0.00;;;;;;;16.66;48.96;101309.72;6189726;23;20347;-78
2023/05/03 09:16:02;;;;;;;0.00;0.00;;;;;;;16.86;49.23;101300.50;6215512;23;20016;-80
2023/05/03 09:18:30;;;;;;;0.00;0.00;;;;;;;16.88;47.91;101274.28;6211293;23;19997;-80
2023/05/03 09:21:04;;;;;;;0.00;0.00;;;;;;;17.01;47.47;101285.75;6208057;23;20027;-78
2023/05/03 09:23:30;;;;;;;0.00;0.00;;;;;;;17.76;47.20;101293.63;6213585;23;20004;-78
2023/05/03 09:25:56;;;;;;;0.00;0.00;;;;;;;20.05;42.60;101302.63;6189923;23;20016;-78
2023/05/03 09:28:22;;;;;;;0.00;0.00;;;;;;;23.09;36.77;101305.75;6217606;23;20020;-78
2023/05/03 09:30:49;;;;;;;0.00;0.00;;;;;;;26.08;32.38;101292.13;6216253;23;20656;-77
2023/05/03 09:33:21;;;;;;;0.00;0.00;;;;;;;29.41;28.90;101308.63;6217902;23;20038;-78
2023/05/03 09:35:57;;;;;;;0.00;0.00;;;;;;;31.49;25.13;101304.31;6242494;23;20056;-78
2023/05/03 09:38:26;;;;;;;0.00;0.00;;;;;;;32.81;23.79;101296.38;6247317;23;20054;-78
2023/05/03 09:40:53;;;;;;;0.00;0.00;;;;;;;34.36;21.65;101302.22;6214879;23;20055;-77
2023/05/03 09:43:19;;;;;;;0.00;0.00;;;;;;;35.83;21.80;101294.94;6194996;23;20004;-78
2023/05/03 09:45:44;;;;;;;0.00;0.00;;;;;;;37.54;19.72;101296.09;6165576;23;20083;-81
2023/05/03 09:48:12;;;;;;;0.00;0.00;;;;;;;38.23;18.18;101284.31;6210652;23;20015;-78
2023/05/03 09:50:37;;;;;;;0.00;0.00;;;;;;;38.62;17.22;101281.88;6214604;23;20494;-78
2023/05/03 09:53:05;;;;;;;0.00;0.00;;;;;;;39.17;16.49;101281.53;6237533;23;20023;-77
2023/05/03 09:55:38;;;;;;;0.00;0.00;;;;;;;40.10;15.96;101290.63;6214086;23;20027;-77
2023/05/03 09:58:07;;;;;;;0.00;0.00;;;;;;;40.04;15.77;101283.84;6212575;23;20008;-77
2023/05/03 10:00:39;;;;;;;0.00;0.00;;;;;;;40.22;15.92;101276.84;6192264;23;20011;-78
2023/05/03 10:03:11;;;;;;;0.00;0.00;;;;;;;40.85;14.23;101268.84;6192175;23;20004;-77
2023/05/03 10:05:44;;;;;;;0.00;0.00;;;;;;;40.61;14.82;101272.00;6212418;23;20043;-77
2023/05/03 10:08:18;;;;;;;0.00;0.00;;;;;;;40.25;14.10;101250.94;6242711;23;20000;-78
2023/05/03 10:10:51;;;;;;;0.00;0.00;;;;;;;39.77;14.81;101262.03;6238532;22;20016;-78
2023/05/03 10:13:17;;;;;;;0.00;0.00;;;;;;;40.23;14.20;101261.22;6213784;23;20007;-78
2023/05/03 10:15:47;;;;;;;0.00;0.00;;;;;;;39.78;14.11;101275.09;6186482;23;20032;-78
2023/05/03 10:18:15;;;;;;;0.00;0.00;;;;;;;40.04;14.63;101263.00;6218165;23;20019;-78
2023/05/03 10:20:56;;;;;;;0.00;0.00;;;;;;;39.94;14.33;101264.84;6212439;23;20004;-77
2023/05/03 10:23:22;;;;;;;0.00;0.00;;;;;;;39.22;15.25;101244.59;6215377;23;20087;-79
2023/05/03 10:26:12;;;;;;;0.00;0.00;;;;;;;38.86;15.00;101256.88;6237083;23;20032;-79
2023/05/03 10:28:38;;;;;;;0.00;0.00;;;;;;;38.45;14.75;101237.34;6215335;23;20058;-79
2023/05/03 10:31:03;;;;;;;0.00;0.00;;;;;;;39.16;15.57;101237.81;6216365;23;20004;-78
2023/05/03 10:33:36;;;;;;;0.00;0.00;;;;;;;40.66;14.50;101237.06;6167240;23;20038;-78
2023/05/03 10:36:06;;;;;;;0.00;0.00;;;;;;;42.03;13.04;101246.88;6211994;23;20008;-79
2023/05/03 10:38:32;;;;;;;0.00;0.00;;;;;;;41.12;12.90;101243.41;6214118;23;20000;-80
2023/05/03 10:41:02;;;;;;;0.00;0.00;;;;;;;41.29;13.56;101246.13;6212293;23;20022;-78
2023/05/03 10:43:33;;;;;;;0.00;0.00;;;;;;;41.93;12.75;101248.09;6216394;23;20004;-78
2023/05/03 10:46:04;;;;;;;0.00;0.00;;;;;;;41.95;12.53;101245.53;6211102;23;20008;-77
2023/05/03 10:48:33;;;;;;;0.00;0.00;;;;;;;42.62;12.37;101240.59;6216713;23;20320;-78
2023/05/03 10:51:38;;;;;;;0.00;0.00;;;;;;;43.68;12.18;101238.69;6237489;23;20378;-77
2023/05/03 10:54:07;;;;;;;0.00;0.00;;;;;;;44.87;10.65;101234.06;6214867;23;20000;-79
2023/05/03 10:56:48;;;;;;;0.00;0.00;;;;;;;45.15;9.85;101225.28;6185976;23;20038;-78
2023/05/03 10:59:14;;;;;;;0.00;0.00;;;;;;;44.65;10.73;101217.03;6213735;23;20000;-79
2023/05/03 11:01:41;;;;;;;0.00;0.00;;;;;;;45.35;9.79;101221.00;6185558;23;20062;-78
2023/05/03 11:04:18;;;;;;;0.00;0.00;;;;;;;45.59;9.77;101221.00;6213897;23;20323;-78
2023/05/03 11:06:45;;;;;;;0.00;0.00;;;;;;;45.69;9.73;101210.16;6209429;23;20023;-78
2023/05/03 11:09:13;;;;;;;0.00;0.00;;;;;;;45.86;9.71;101190.31;6188855;23;20007;-79
2023/05/03 11:11:40;;;;;;;0.00;0.00;;;;;;;46.00;9.98;101199.00;6215657;23;20016;-78
2023/05/03 11:14:07;;;;;;;0.00;0.00;;;;;;;45.44;10.06;101197.84;6186400;23;20435;-76
2023/05/03 11:16:33;;;;;;;0.00;0.00;;;;;;;45.54;9.98;101169.72;6213176;23;20087;-77
2023/05/03 11:19:00;;;;;;;0.00;0.00;;;;;;;46.09;9.96;101179.94;6209255;23;20355;-77
2023/05/03 11:21:28;;;;;;;0.00;0.00;;;;;;;46.46;9.33;101170.88;6213060;23;20031;-78
2023/05/03 12:40:56;;;;;;;0.00;0.00;;;;;;;51.66;6.63;101070.13;6181264;22;1380565;-79
2023/05/03 12:43:24;;;;;;;0.00;0.00;;;;;;;51.60;6.70;101054.78;6173163;23;20016;-78
2023/05/03 12:45:50;;;;;;;0.00;0.00;;;;;;;52.23;6.79;101041.22;6245944;23;20024;-79
2023/05/03 12:48:18;;;;;;;0.00;0.00;;;;;;;52.19;6.18;101041.53;6247716;23;20067;-80
2023/05/03 12:59:27;;;;;;;0.00;0.00;;;;;;;50.53;6.42;101015.38;6246367;23;20031;-79
2023/05/03 13:01:53;;;;;;;0.00;0.00;;;;;;;49.82;6.61;101025.28;6168270;23;20008;-79
2023/05/03 13:04:18;;;;;;;0.00;0.00;;;;;;;50.12;6.84;101023.41;6249288;23;20046;-80
2023/05/03 13:06:45;;;;;;;0.00;0.00;;;;;;;50.45;6.42;101024.66;6169313;23;20032;-79
2023/05/03 13:09:15;;;;;;;0.00;0.00;;;;;;;50.26;6.89;101014.91;6222903;23;20381;-79
2023/05/03 13:11:41;;;;;;;0.00;0.00;;;;;;;51.01;6.42;101005.38;6196273;23;20014;-78
2023/05/03 13:14:06;;;;;;;0.00;0.00;;;;;;;50.04;6.39;100999.13;6188915;23;20082;-78
2023/05/03 13:16:33;;;;;;;0.00;0.00;;;;;;;48.02;7.30;101000.91;6196442;23;20039;-78